Time;durP1;ratioP1;P1;durP2;ratioP2;P2;SDS_P1;SDS_P2;PMS_P1;PMS_P2;Temp;Humidity;BMP_temperature;BMP_pressure;BME280_temperature;BME280_humidity;BME280_pressure;Samples;Min_cycle;Max_cycle;Signal;HPM_P1;HPM_P2
2022/03/16 00:02:05;;;;;;;29.98;18.15;;;;;;;;;;5034603;28;20064;-62
2022/03/16 00:04:31;;;;;;;31.48;17.88;;;;;;;;;;5034985;28;20029;-62
2022/03/16 00:06:57;;;;;;;26.17;15.20;;;;;;;;;;5035304;28;20025;-62
2022/03/16 00:09:24;;;;;;;24.90;14.50;;;;;;;;;;5034313;28;20393;-62
2022/03/16 00:11:50;;;;;;;30.40;15.98;;;;;;;;;;5035163;28;20481;-62
2022/03/16 00:14:17;;;;;;;30.10;14.15;;;;;;;;;;5034453;28;20033;-62
2022/03/16 00:16:43;;;;;;;28.98;15.20;;;;;;;;;;5034913;28;20347;-62
2022/03/16 00:19:09;;;;;;;23.33;15.60;;;;;;;;;;5034343;28;20029;-62
2022/03/16 00:21:35;;;;;;;24.63;15.45;;;;;;;;;;5034787;28;20564;-62
2022/03/16 00:24:01;;;;;;;32.83;16.15;;;;;;;;;;5034178;28;20051;-62
2022/03/16 00:26:28;;;;;;;28.00;16.98;;;;;;;;;;5034516;28;20029;-62
2022/03/16 00:28:54;;;;;;;31.67;17.33;;;;;;;;;;5034678;28;20033;-62
2022/03/16 00:31:20;;;;;;;41.00;19.63;;;;;;;;;;5016261;28;20036;-62
2022/03/16 00:33:47;;;;;;;41.40;19.13;;;;;;;;;;5016540;28;20040;-62
2022/03/16 00:36:13;;;;;;;35.97;19.33;;;;;;;;;;5015770;28;20128;-62
2022/03/16 00:38:39;;;;;;;34.28;18.17;;;;;;;;;;5034146;28;20017;-62
2022/03/16 00:41:07;;;;;;;33.15;18.50;;;;;;;;;;5034362;28;20141;-62
2022/03/16 00:43:34;;;;;;;28.95;17.90;;;;;;;;;;5033883;28;20030;-62
2022/03/16 00:46:00;;;;;;;33.50;18.48;;;;;;;;;;5016097;28;20034;-62
2022/03/16 00:48:27;;;;;;;40.78;18.95;;;;;;;;;;5016345;28;20480;-62
2022/03/16 00:50:53;;;;;;;34.13;19.38;;;;;;;;;;5033980;28;20068;-62
2022/03/16 00:53:19;;;;;;;32.72;19.38;;;;;;;;;;5015731;28;20171;-62
2022/03/16 00:55:45;;;;;;;29.13;17.95;;;;;;;;;;5016245;28;20037;-62
2022/03/16 00:58:11;;;;;;;34.95;19.45;;;;;;;;;;5033345;28;20033;-62
2022/03/16 01:00:37;;;;;;;32.05;17.63;;;;;;;;;;5033978;28;20140;-62
2022/03/16 01:03:06;;;;;;;31.17;18.65;;;;;;;;;;5033904;28;20477;-62
2022/03/16 01:05:33;;;;;;;34.88;18.95;;;;;;;;;;5033928;28;20033;-62
2022/03/16 01:07:59;;;;;;;33.20;18.33;;;;;;;;;;5016004;28;20030;-62
2022/03/16 01:10:25;;;;;;;36.58;19.17;;;;;;;;;;5015523;28;20401;-62
2022/03/16 01:12:53;;;;;;;35.35;19.40;;;;;;;;;;5015175;28;20048;-62
2022/03/16 01:15:23;;;;;;;36.80;20.08;;;;;;;;;;5033594;28;20033;-62
2022/03/16 01:17:50;;;;;;;33.00;18.13;;;;;;;;;;5033585;28;20030;-62
2022/03/16 01:20:17;;;;;;;35.72;19.38;;;;;;;;;;5015618;28;20056;-62
2022/03/16 01:22:44;;;;;;;32.55;19.48;;;;;;;;;;5015218;28;20025;-62
2022/03/16 01:25:10;;;;;;;34.67;19.30;;;;;;;;;;5033205;28;20038;-62
2022/03/16 01:27:36;;;;;;;34.78;18.45;;;;;;;;;;5033433;28;20041;-62
2022/03/16 01:30:03;;;;;;;32.75;18.35;;;;;;;;;;5033507;28;20041;-62
2022/03/16 01:32:29;;;;;;;29.00;17.92;;;;;;;;;;5015040;28;20072;-62
2022/03/16 01:34:56;;;;;;;32.55;17.75;;;;;;;;;;5015445;28;20389;-62
2022/03/16 01:37:22;;;;;;;30.58;17.35;;;;;;;;;;5014734;28;20061;-62
2022/03/16 01:39:48;;;;;;;31.20;17.50;;;;;;;;;;5033593;28;20112;-62
2022/03/16 01:42:15;;;;;;;32.97;17.10;;;;;;;;;;5032785;28;20490;-62
2022/03/16 01:44:41;;;;;;;32.78;17.15;;;;;;;;;;5033189;28;20053;-62
2022/03/16 01:47:07;;;;;;;31.85;17.45;;;;;;;;;;5015587;28;20030;-62
2022/03/16 01:49:33;;;;;;;36.95;16.92;;;;;;;;;;5032720;28;20037;-62
2022/03/16 01:51:59;;;;;;;32.30;16.88;;;;;;;;;;5015299;28;20033;-62
2022/03/16 01:54:25;;;;;;;35.40;17.15;;;;;;;;;;5014872;28;20032;-62
2022/03/16 01:56:52;;;;;;;30.83;17.20;;;;;;;;;;5014252;28;20033;-62
2022/03/16 01:59:18;;;;;;;30.88;16.80;;;;;;;;;;5015058;28;20025;-62
2022/03/16 02:01:44;;;;;;;38.08;17.10;;;;;;;;;;5015166;28;20025;-62
2022/03/16 02:04:12;;;;;;;37.67;16.77;;;;;;;;;;5015079;28;20037;-62
2022/03/16 02:06:38;;;;;;;28.90;16.55;;;;;;;;;;5032400;28;20049;-62
2022/03/16 02:09:04;;;;;;;37.28;17.67;;;;;;;;;;5032838;28;20036;-62
2022/03/16 02:11:30;;;;;;;28.90;15.77;;;;;;;;;;5032409;28;20035;-62
2022/03/16 02:13:57;;;;;;;29.20;17.08;;;;;;;;;;5032733;28;20025;-62
2022/03/16 02:16:23;;;;;;;30.98;17.40;;;;;;;;;;5032192;28;20025;-62
2022/03/16 02:18:49;;;;;;;30.23;17.15;;;;;;;;;;5032649;28;20033;-62
2022/03/16 02:21:16;;;;;;;31.55;17.10;;;;;;;;;;5032516;28;20029;-62
2022/03/16 02:23:43;;;;;;;30.98;16.27;;;;;;;;;;5032318;28;20042;-62
2022/03/16 02:26:12;;;;;;;33.58;16.85;;;;;;;;;;5032588;28;20026;-62
2022/03/16 02:28:38;;;;;;;26.67;16.00;;;;;;;;;;5032215;28;20029;-62
2022/03/16 02:31:05;;;;;;;32.90;16.05;;;;;;;;;;5031986;28;20021;-62
2022/03/16 02:33:32;;;;;;;29.52;15.90;;;;;;;;;;5031880;28;20045;-62
2022/03/16 02:35:58;;;;;;;35.95;16.63;;;;;;;;;;5032107;28;20026;-62
2022/03/16 02:38:24;;;;;;;29.98;17.38;;;;;;;;;;5031819;28;20036;-62
2022/03/16 02:40:50;;;;;;;35.22;17.38;;;;;;;;;;5032541;28;20040;-62
2022/03/16 02:43:16;;;;;;;33.00;18.85;;;;;;;;;;5032609;28;20112;-62
2022/03/16 02:45:42;;;;;;;32.30;16.98;;;;;;;;;;5032822;28;20052;-62
2022/03/16 02:48:08;;;;;;;32.90;18.92;;;;;;;;;;5032530;28;20048;-62
2022/03/16 02:50:35;;;;;;;33.60;18.40;;;;;;;;;;5032130;28;20080;-62
2022/03/16 02:53:01;;;;;;;26.75;16.30;;;;;;;;;;5032662;28;20088;-62
2022/03/16 02:55:27;;;;;;;29.95;17.27;;;;;;;;;;5032143;28;20128;-62
2022/03/16 02:57:53;;;;;;;35.75;18.45;;;;;;;;;;5032250;28;20120;-62
2022/03/16 03:00:20;;;;;;;38.05;19.75;;;;;;;;;;5032430;28;20376;-62
2022/03/16 03:02:46;;;;;;;31.70;19.73;;;;;;;;;;5031740;28;20405;-62
2022/03/16 03:05:12;;;;;;;34.63;18.58;;;;;;;;;;5032282;28;20048;-62
2022/03/16 03:07:38;;;;;;;38.53;18.15;;;;;;;;;;5033446;28;20033;-62
2022/03/16 03:10:05;;;;;;;32.28;17.00;;;;;;;;;;5036134;28;20029;-62
2022/03/16 03:12:35;;;;;;;34.22;17.77;;;;;;;;;;5036200;28;20079;-62
2022/03/16 03:15:01;;;;;;;25.98;16.58;;;;;;;;;;5036129;28;20069;-62
2022/03/16 03:17:28;;;;;;;37.63;17.45;;;;;;;;;;5035627;28;20100;-62
2022/03/16 03:19:54;;;;;;;29.90;18.10;;;;;;;;;;5036170;28;20104;-62
2022/03/16 03:22:20;;;;;;;32.20;16.48;;;;;;;;;;5036006;28;20055;-62
2022/03/16 03:24:46;;;;;;;30.95;16.75;;;;;;;;;;5035754;28;20049;-62
2022/03/16 03:27:13;;;;;;;38.28;19.30;;;;;;;;;;5035903;28;20048;-62
2022/03/16 03:29:39;;;;;;;29.40;17.77;;;;;;;;;;5035868;28;20037;-62
2022/03/16 03:32:05;;;;;;;29.60;17.13;;;;;;;;;;5035398;28;20033;-62
2022/03/16 03:34:31;;;;;;;34.75;17.10;;;;;;;;;;5035255;28;20073;-62
2022/03/16 03:36:58;;;;;;;33.22;17.13;;;;;;;;;;5035712;28;20030;-62
2022/03/16 03:39:24;;;;;;;29.25;16.63;;;;;;;;;;5035721;28;20033;-62
2022/03/16 03:41:50;;;;;;;33.40;17.25;;;;;;;;;;5035756;28;20029;-62
2022/03/16 03:44:16;;;;;;;33.47;17.77;;;;;;;;;;5035666;28;20444;-62
2022/03/16 03:46:42;;;;;;;26.65;15.65;;;;;;;;;;5033051;28;20025;-62
2022/03/16 03:49:08;;;;;;;26.35;15.60;;;;;;;;;;5034638;28;20051;-62
2022/03/16 03:51:34;;;;;;;30.02;16.38;;;;;;;;;;5034228;28;20033;-62
2022/03/16 03:54:00;;;;;;;31.17;17.33;;;;;;;;;;5034912;28;20025;-62
2022/03/16 03:56:26;;;;;;;28.95;16.70;;;;;;;;;;5034776;28;20033;-62
2022/03/16 03:58:52;;;;;;;28.63;17.20;;;;;;;;;;5027125;28;20029;-62
2022/03/16 04:01:19;;;;;;;29.27;16.05;;;;;;;;;;5034494;28;20029;-62
2022/03/16 04:03:45;;;;;;;34.60;17.45;;;;;;;;;;5034900;28;20033;-62
2022/03/16 04:06:11;;;;;;;33.17;16.90;;;;;;;;;;5034650;28;20032;-62
2022/03/16 04:08:38;;;;;;;34.22;17.65;;;;;;;;;;5034999;28;20492;-62
2022/03/16 04:11:04;;;;;;;32.13;16.85;;;;;;;;;;5035408;28;20037;-62
2022/03/16 04:13:31;;;;;;;33.20;17.27;;;;;;;;;;5034574;28;20037;-62
2022/03/16 04:15:57;;;;;;;34.72;16.80;;;;;;;;;;5034415;28;20378;-62
2022/03/16 04:18:25;;;;;;;28.80;15.93;;;;;;;;;;5033859;28;20491;-62
2022/03/16 04:20:52;;;;;;;35.03;17.38;;;;;;;;;;5033108;28;20503;-62
2022/03/16 04:23:18;;;;;;;34.72;16.63;;;;;;;;;;5033884;28;20116;-62
2022/03/16 04:25:44;;;;;;;29.52;15.73;;;;;;;;;;5034023;28;20064;-62
2022/03/16 04:28:10;;;;;;;37.03;20.00;;;;;;;;;;5034450;28;20083;-61
2022/03/16 04:30:36;;;;;;;33.50;16.58;;;;;;;;;;5033869;28;20029;-61
2022/03/16 04:33:02;;;;;;;30.80;18.67;;;;;;;;;;5034125;28;20511;-61
2022/03/16 04:35:28;;;;;;;25.17;15.77;;;;;;;;;;5034177;28;20065;-62
2022/03/16 04:37:54;;;;;;;30.77;17.42;;;;;;;;;;5034200;28;20028;-62
2022/03/16 04:40:21;;;;;;;32.90;17.67;;;;;;;;;;5034312;28;20032;-61
2022/03/16 04:42:47;;;;;;;29.77;17.48;;;;;;;;;;5033603;28;20025;-62
2022/03/16 04:45:13;;;;;;;36.20;15.98;;;;;;;;;;5033827;28;20032;-61
2022/03/16 04:47:39;;;;;;;29.55;17.13;;;;;;;;;;5033029;28;20469;-62
2022/03/16 04:50:06;;;;;;;34.85;17.40;;;;;;;;;;5034077;28;20477;-61
2022/03/16 04:52:32;;;;;;;32.08;16.92;;;;;;;;;;5033747;28;20029;-61
2022/03/16 04:54:59;;;;;;;31.25;16.10;;;;;;;;;;5033703;28;20124;-62
2022/03/16 04:57:25;;;;;;;30.63;16.27;;;;;;;;;;5034145;28;20528;-61
2022/03/16 04:59:51;;;;;;;30.95;16.27;;;;;;;;;;5033404;28;20079;-62
2022/03/16 05:02:17;;;;;;;30.23;15.85;;;;;;;;;;5034285;28;20025;-62
2022/03/16 05:04:43;;;;;;;32.55;16.30;;;;;;;;;;5032698;28;20033;-62
2022/03/16 05:07:09;;;;;;;25.58;15.02;;;;;;;;;;5033924;28;20083;-62
2022/03/16 05:09:35;;;;;;;28.92;15.40;;;;;;;;;;5033487;28;20128;-62
2022/03/16 05:12:01;;;;;;;33.08;17.10;;;;;;;;;;5015721;28;20115;-62
2022/03/16 05:14:27;;;;;;;31.58;16.17;;;;;;;;;;5033689;28;20032;-62
2022/03/16 05:16:54;;;;;;;26.08;14.60;;;;;;;;;;5033128;28;20404;-62
2022/03/16 05:19:20;;;;;;;25.27;14.77;;;;;;;;;;5033915;28;20029;-62
2022/03/16 05:21:46;;;;;;;36.53;15.20;;;;;;;;;;5033621;28;20033;-62
2022/03/16 05:24:12;;;;;;;31.85;15.55;;;;;;;;;;5033522;28;20080;-62
2022/03/16 05:26:38;;;;;;;29.55;15.60;;;;;;;;;;5033439;28;20033;-61
2022/03/16 05:29:05;;;;;;;32.45;15.73;;;;;;;;;;5033388;28;20039;-62
2022/03/16 05:31:31;;;;;;;28.73;15.65;;;;;;;;;;5033091;28;20032;-62
2022/03/16 05:33:57;;;;;;;37.22;15.40;;;;;;;;;;5033239;28;20076;-62
2022/03/16 05:36:24;;;;;;;27.10;14.90;;;;;;;;;;5033759;28;20033;-62
2022/03/16 05:38:50;;;;;;;26.00;14.02;;;;;;;;;;5031427;28;20034;-62
2022/03/16 05:41:17;;;;;;;26.67;14.20;;;;;;;;;;5033566;28;20374;-62
2022/03/16 05:43:43;;;;;;;33.05;15.07;;;;;;;;;;5032914;28;20504;-62
2022/03/16 05:46:10;;;;;;;29.48;16.10;;;;;;;;;;5032953;28;20254;-62
2022/03/16 05:48:36;;;;;;;29.73;15.38;;;;;;;;;;5015026;28;20107;-62
2022/03/16 05:51:02;;;;;;;25.08;14.20;;;;;;;;;;5032807;28;20040;-62
2022/03/16 05:53:28;;;;;;;30.88;15.70;;;;;;;;;;5033023;28;20063;-62
2022/03/16 05:55:54;;;;;;;28.42;14.70;;;;;;;;;;5032286;28;20033;-62
2022/03/16 05:58:21;;;;;;;34.42;16.40;;;;;;;;;;5033002;28;20071;-62
2022/03/16 06:00:47;;;;;;;32.85;15.57;;;;;;;;;;5032619;28;20056;-62
2022/03/16 06:03:13;;;;;;;31.95;17.42;;;;;;;;;;5027631;28;20033;-62
2022/03/16 06:05:39;;;;;;;27.17;15.25;;;;;;;;;;5027270;28;20030;-62
2022/03/16 06:08:06;;;;;;;26.88;15.02;;;;;;;;;;5024366;28;20440;-62
2022/03/16 06:10:32;;;;;;;28.33;15.88;;;;;;;;;;5026643;28;20433;-62
2022/03/16 06:13:01;;;;;;;29.67;15.77;;;;;;;;;;5029598;28;20091;-61
2022/03/16 06:15:28;;;;;;;27.20;15.60;;;;;;;;;;5030553;28;20079;-62
2022/03/16 06:17:58;;;;;;;28.10;15.77;;;;;;;;;;5030165;28;20060;-61
2022/03/16 06:20:26;;;;;;;28.90;15.45;;;;;;;;;;5021863;28;20032;-62
2022/03/16 06:22:52;;;;;;;33.90;15.50;;;;;;;;;;5028490;28;20037;-61
2022/03/16 06:25:18;;;;;;;35.17;15.48;;;;;;;;;;5029042;28;20049;-61
2022/03/16 06:27:45;;;;;;;33.17;14.90;;;;;;;;;;5024533;28;20075;-61
2022/03/16 06:30:11;;;;;;;25.60;14.60;;;;;;;;;;5029673;28;20516;-61
2022/03/16 06:32:37;;;;;;;31.85;14.40;;;;;;;;;;5029251;28;20026;-62
2022/03/16 06:35:05;;;;;;;32.17;15.77;;;;;;;;;;5028083;28;20032;-68
2022/03/16 06:37:31;;;;;;;31.60;14.98;;;;;;;;;;5023539;28;20915;-62
2022/03/16 06:39:57;;;;;;;26.45;15.18;;;;;;;;;;5024679;28;20488;-62
2022/03/16 06:42:24;;;;;;;30.55;15.43;;;;;;;;;;5024724;28;20112;-61
2022/03/16 06:44:50;;;;;;;28.70;15.75;;;;;;;;;;5018530;28;20030;-61
2022/03/16 06:47:16;;;;;;;33.20;15.75;;;;;;;;;;5035376;28;20033;-61
2022/03/16 06:49:42;;;;;;;29.38;16.13;;;;;;;;;;5038361;28;20056;-61
2022/03/16 06:52:08;;;;;;;34.53;15.10;;;;;;;;;;5037577;28;20021;-61
2022/03/16 06:54:34;;;;;;;28.50;15.50;;;;;;;;;;5037488;28;20064;-61
2022/03/16 06:57:01;;;;;;;33.28;17.65;;;;;;;;;;5036929;28;20517;-61
2022/03/16 06:59:27;;;;;;;31.67;16.02;;;;;;;;;;5036067;28;20030;-63
2022/03/16 07:01:53;;;;;;;35.20;14.95;;;;;;;;;;5035293;28;20432;-64
2022/03/16 07:04:19;;;;;;;28.15;15.50;;;;;;;;;;5037240;28;20072;-64
2022/03/16 07:06:45;;;;;;;27.13;15.15;;;;;;;;;;5037437;28;20419;-64
2022/03/16 07:09:11;;;;;;;29.50;15.57;;;;;;;;;;5037131;28;20025;-64
2022/03/16 07:11:37;;;;;;;28.20;14.70;;;;;;;;;;5036949;28;20038;-64
2022/03/16 07:16:48;;;;;;;26.52;15.23;;;;;;;;;;5033516;28;20461;-63
2022/03/16 07:19:14;;;;;;;36.05;15.65;;;;;;;;;;5030310;28;20137;-63
2022/03/16 07:21:41;;;;;;;30.15;16.65;;;;;;;;;;5037999;28;20480;-63
2022/03/16 07:24:07;;;;;;;33.55;16.17;;;;;;;;;;5038791;28;20045;-64
2022/03/16 07:26:33;;;;;;;26.17;15.02;;;;;;;;;;5038213;28;20108;-64
2022/03/16 07:29:00;;;;;;;27.38;15.27;;;;;;;;;;5034823;28;20041;-64
2022/03/16 07:31:26;;;;;;;27.65;14.05;;;;;;;;;;5035190;28;20048;-64
2022/03/16 07:33:52;;;;;;;25.92;15.13;;;;;;;;;;5034594;28;20083;-64
2022/03/16 07:36:18;;;;;;;26.63;14.68;;;;;;;;;;5037363;28;20040;-63
2022/03/16 07:38:44;;;;;;;28.90;15.52;;;;;;;;;;5033478;28;20067;-63
2022/03/16 07:41:11;;;;;;;31.60;16.02;;;;;;;;;;5035330;28;20083;-64
2022/03/16 07:43:37;;;;;;;41.58;19.00;;;;;;;;;;5037955;28;20021;-63
2022/03/16 07:46:04;;;;;;;33.25;17.75;;;;;;;;;;5035702;28;20037;-64
2022/03/16 07:48:30;;;;;;;32.80;17.55;;;;;;;;;;5036613;28;20461;-64
2022/03/16 07:50:56;;;;;;;37.38;17.65;;;;;;;;;;5034418;28;20084;-64
2022/03/16 07:53:22;;;;;;;41.38;17.20;;;;;;;;;;5029879;28;20041;-64
2022/03/16 07:55:50;;;;;;;42.97;17.73;;;;;;;;;;5030794;28;20033;-64
2022/03/16 07:58:16;;;;;;;42.70;18.77;;;;;;;;;;5025924;28;20053;-64
2022/03/16 08:00:42;;;;;;;45.90;19.20;;;;;;;;;;5031214;28;20435;-64
2022/03/16 08:03:09;;;;;;;42.17;17.70;;;;;;;;;;5031018;28;20059;-64
2022/03/16 08:05:35;;;;;;;46.03;19.35;;;;;;;;;;5033067;28;20041;-64
2022/03/16 08:08:01;;;;;;;43.85;18.33;;;;;;;;;;5034170;28;20037;-64
2022/03/16 08:10:27;;;;;;;43.22;18.95;;;;;;;;;;5033428;28;20055;-64
2022/03/16 08:12:53;;;;;;;51.20;20.30;;;;;;;;;;5033768;28;20104;-64
2022/03/16 08:15:19;;;;;;;60.28;22.13;;;;;;;;;;5034124;28;20030;-64
2022/03/16 08:17:45;;;;;;;47.35;20.02;;;;;;;;;;5029793;28;20028;-64
2022/03/16 08:20:12;;;;;;;57.13;21.08;;;;;;;;;;5033164;28;20489;-63
2022/03/16 08:22:38;;;;;;;62.55;24.33;;;;;;;;;;5031826;28;20025;-64
2022/03/16 08:25:05;;;;;;;71.57;27.75;;;;;;;;;;5033898;28;20053;-64
2022/03/16 08:27:32;;;;;;;61.05;26.40;;;;;;;;;;5031091;28;20489;-64
2022/03/16 08:29:58;;;;;;;64.63;25.17;;;;;;;;;;5027285;28;20064;-64
2022/03/16 08:32:24;;;;;;;56.88;24.77;;;;;;;;;;5030891;28;20052;-64
2022/03/16 08:34:51;;;;;;;56.13;25.58;;;;;;;;;;5029501;28;20025;-63
2022/03/16 08:37:18;;;;;;;68.68;25.88;;;;;;;;;;5031670;28;20386;-63
2022/03/16 08:39:45;;;;;;;74.40;27.92;;;;;;;;;;5032868;28;20404;-64
2022/03/16 08:42:12;;;;;;;58.25;24.80;;;;;;;;;;5030166;28;20053;-64
2022/03/16 08:44:39;;;;;;;64.68;23.35;;;;;;;;;;5033793;28;20025;-64
2022/03/16 08:47:05;;;;;;;54.78;22.92;;;;;;;;;;5027994;28;20025;-69
2022/03/16 08:49:32;;;;;;;58.33;24.10;;;;;;;;;;5032751;28;20041;-63
2022/03/16 08:51:58;;;;;;;56.10;23.13;;;;;;;;;;5034502;28;20029;-63
2022/03/16 08:54:25;;;;;;;55.75;23.88;;;;;;;;;;5034288;28;20033;-63
2022/03/16 08:56:52;;;;;;;68.18;23.73;;;;;;;;;;5034443;28;20393;-63
2022/03/16 08:59:19;;;;;;;52.22;22.98;;;;;;;;;;5033961;28;20024;-63
2022/03/16 09:01:45;;;;;;;56.10;21.63;;;;;;;;;;5034423;28;20032;-63
2022/03/16 09:04:12;;;;;;;46.75;20.48;;;;;;;;;;5034342;28;20041;-63
2022/03/16 09:06:38;;;;;;;51.72;22.50;;;;;;;;;;5033274;28;20033;-63
2022/03/16 09:09:04;;;;;;;51.60;22.88;;;;;;;;;;5034440;28;20546;-63
2022/03/16 09:11:30;;;;;;;47.30;20.88;;;;;;;;;;5033991;28;20037;-63
2022/03/16 09:13:56;;;;;;;49.05;21.38;;;;;;;;;;5034199;28;20049;-63
2022/03/16 09:16:22;;;;;;;44.85;19.70;;;;;;;;;;5033633;28;20021;-63
2022/03/16 09:18:49;;;;;;;49.05;20.20;;;;;;;;;;5033877;28;20028;-63
2022/03/16 09:21:16;;;;;;;49.35;19.60;;;;;;;;;;5033506;28;20038;-63
2022/03/16 09:23:42;;;;;;;48.30;20.02;;;;;;;;;;5033851;28;20053;-63
2022/03/16 09:26:08;;;;;;;39.78;16.48;;;;;;;;;;5034087;28;20033;-63
2022/03/16 09:28:34;;;;;;;33.50;15.25;;;;;;;;;;5033894;28;20018;-63
2022/03/16 09:31:00;;;;;;;28.42;13.43;;;;;;;;;;5033835;28;20036;-63
2022/03/16 09:33:30;;;;;;;29.50;13.52;;;;;;;;;;5033032;28;20026;-63
2022/03/16 09:35:56;;;;;;;30.02;14.65;;;;;;;;;;5033318;28;20025;-63
2022/03/16 09:38:22;;;;;;;33.42;14.82;;;;;;;;;;5033342;28;20056;-63
2022/03/16 09:40:52;;;;;;;33.63;14.65;;;;;;;;;;5033693;28;20035;-63
2022/03/16 09:43:19;;;;;;;24.17;13.15;;;;;;;;;;5033340;28;20037;-63
2022/03/16 09:45:57;;;;;;;29.83;14.35;;;;;;;;;;5033518;28;20036;-63
2022/03/16 09:48:23;;;;;;;29.92;14.38;;;;;;;;;;5033213;28;20030;-63
2022/03/16 09:50:53;;;;;;;29.85;14.68;;;;;;;;;;5033132;28;20037;-63
2022/03/16 09:53:20;;;;;;;31.65;15.65;;;;;;;;;;5033085;28;20029;-63
2022/03/16 09:55:47;;;;;;;38.42;18.33;;;;;;;;;;5033112;28;20362;-63
2022/03/16 09:58:13;;;;;;;36.17;17.77;;;;;;;;;;5033186;28;20028;-63
2022/03/16 10:00:39;;;;;;;40.08;16.80;;;;;;;;;;5033217;28;20408;-63
2022/03/16 10:03:05;;;;;;;45.83;19.52;;;;;;;;;;5033286;28;20040;-63
2022/03/16 10:05:32;;;;;;;47.10;20.33;;;;;;;;;;5032482;28;20465;-63
2022/03/16 10:08:02;;;;;;;40.33;19.15;;;;;;;;;;5033180;28;20025;-63
2022/03/16 10:13:24;;;;;;;49.80;19.70;;;;;;;;;;5032954;28;20033;-63
2022/03/16 10:15:55;;;;;;;49.47;19.98;;;;;;;;;;5032788;28;20037;-63
2022/03/16 10:18:23;;;;;;;45.08;19.45;;;;;;;;;;5031835;28;20385;-63
2022/03/16 10:20:52;;;;;;;44.55;18.35;;;;;;;;;;5033005;28;20366;-63
2022/03/16 10:23:23;;;;;;;48.88;18.85;;;;;;;;;;5032431;28;20193;-63
2022/03/16 10:25:59;;;;;;;33.60;16.63;;;;;;;;;;5032914;28;20087;-63
2022/03/16 10:28:25;;;;;;;40.63;18.00;;;;;;;;;;5032715;28;20032;-63
2022/03/16 10:31:07;;;;;;;38.15;18.05;;;;;;;;;;5032739;28;20045;-63
2022/03/16 10:33:35;;;;;;;41.70;18.60;;;;;;;;;;5032303;28;20120;-63
2022/03/16 10:36:11;;;;;;;30.35;14.02;;;;;;;;;;5032706;28;20029;-63
2022/03/16 10:38:41;;;;;;;30.92;13.95;;;;;;;;;;5032446;28;20026;-63
2022/03/16 10:41:11;;;;;;;34.28;15.43;;;;;;;;;;5032831;28;20033;-63
2022/03/16 10:46:46;;;;;;;29.45;12.77;;;;;;;;;;4989185;28;20057;-63
2022/03/16 10:49:15;;;;;;;27.13;11.60;;;;;;;;;;5032602;28;20041;-63
2022/03/16 10:51:43;;;;;;;29.45;12.13;;;;;;;;;;5032596;28;20465;-63
2022/03/16 10:54:09;;;;;;;33.83;13.15;;;;;;;;;;5032352;28;20025;-63
2022/03/16 10:56:38;;;;;;;31.02;12.05;;;;;;;;;;5032400;28;20458;-63
2022/03/16 10:59:04;;;;;;;29.20;11.38;;;;;;;;;;5032720;28;20029;-63
2022/03/16 11:01:32;;;;;;;33.13;12.27;;;;;;;;;;5032057;28;20049;-63
2022/03/16 11:03:58;;;;;;;27.63;11.05;;;;;;;;;;5032378;28;20021;-63
2022/03/16 11:06:25;;;;;;;26.77;12.07;;;;;;;;;;5032201;28;20454;-63
2022/03/16 11:08:51;;;;;;;23.55;10.75;;;;;;;;;;5032414;28;20029;-63
2022/03/16 11:14:17;;;;;;;25.90;9.32;;;;;;;;;;4988506;28;20122;-63
2022/03/16 11:16:45;;;;;;;24.42;8.52;;;;;;;;;;5031911;28;20025;-63
2022/03/16 11:19:15;;;;;;;23.65;7.90;;;;;;;;;;5027579;28;20053;-63
2022/03/16 11:21:45;;;;;;;21.27;9.00;;;;;;;;;;5028058;28;20037;-63
2022/03/16 11:24:17;;;;;;;31.17;11.07;;;;;;;;;;5030040;28;20064;-62
2022/03/16 11:26:49;;;;;;;21.73;9.02;;;;;;;;;;5029593;28;20034;-63
2022/03/16 11:29:18;;;;;;;25.17;10.40;;;;;;;;;;5027421;28;20026;-63
2022/03/16 11:31:45;;;;;;;29.60;10.77;;;;;;;;;;5031688;28;20038;-63
2022/03/16 11:34:13;;;;;;;32.63;11.93;;;;;;;;;;5011173;28;20063;-63
2022/03/16 11:36:40;;;;;;;33.25;13.45;;;;;;;;;;5031239;28;20508;-63
2022/03/16 11:39:16;;;;;;;42.00;14.70;;;;;;;;;;5031087;28;20422;-63
2022/03/16 11:41:48;;;;;;;38.72;14.15;;;;;;;;;;5033063;28;20021;-63
2022/03/16 11:44:26;;;;;;;36.10;13.40;;;;;;;;;;5031094;28;20517;-63
2022/03/16 11:46:53;;;;;;;41.30;16.13;;;;;;;;;;5025887;28;20603;-63
2022/03/16 11:49:29;;;;;;;32.20;13.38;;;;;;;;;;5032135;28;20034;-63
2022/03/16 11:51:59;;;;;;;38.63;13.95;;;;;;;;;;5030448;28;20392;-63
2022/03/16 11:54:52;;;;;;;38.17;14.27;;;;;;;;;;5032324;28;20613;-63
2022/03/16 11:57:50;;;;;;;35.33;14.15;;;;;;;;;;5027896;28;20109;-63
2022/03/16 12:00:17;;;;;;;35.28;13.68;;;;;;;;;;5030650;28;20072;-63
2022/03/16 12:02:52;;;;;;;38.08;14.45;;;;;;;;;;5032516;28;20121;-63
2022/03/16 12:05:20;;;;;;;34.58;13.23;;;;;;;;;;5030179;28;20021;-63
2022/03/16 12:07:46;;;;;;;37.45;13.45;;;;;;;;;;5028607;28;20405;-63
2022/03/16 12:10:15;;;;;;;38.97;13.93;;;;;;;;;;5028265;28;20025;-63
2022/03/16 12:15:42;;;;;;;35.50;13.60;;;;;;;;;;4966667;28;20055;-63
2022/03/16 12:18:14;;;;;;;35.03;14.73;;;;;;;;;;4966080;28;20043;-63
2022/03/16 12:20:44;;;;;;;43.17;15.20;;;;;;;;;;4969037;28;20562;-63
2022/03/16 12:23:11;;;;;;;37.15;15.20;;;;;;;;;;4967741;28;20093;-63
2022/03/16 12:25:39;;;;;;;41.85;14.65;;;;;;;;;;4968920;28;20039;-63
2022/03/16 12:29:10;;;;;;;36.38;13.85;;;;;;;;;;4968410;28;20125;-63
2022/03/16 12:31:09;;;;;;;35.15;13.52;;;;;;;;;;4953446;28;20097;-63
2022/03/16 12:33:39;;;;;;;43.22;15.10;;;;;;;;;;4970076;28;20069;-63
2022/03/16 12:36:22;;;;;;;33.88;14.82;;;;;;;;;;4968517;28;20530;-63
2022/03/16 12:38:49;;;;;;;36.08;13.13;;;;;;;;;;4970902;28;20466;-63
2022/03/16 12:44:03;;;;;;;49.05;17.48;;;;;;;;;;4969333;28;20105;-63
2022/03/16 12:46:34;;;;;;;44.60;17.20;;;;;;;;;;4971915;28;20038;-63
2022/03/16 12:49:00;;;;;;;46.60;19.30;;;;;;;;;;4968028;28;20039;-63
2022/03/16 12:51:33;;;;;;;46.13;18.40;;;;;;;;;;5004670;28;20046;-63
2022/03/16 12:53:59;;;;;;;44.38;17.85;;;;;;;;;;5026834;28;20022;-63
2022/03/16 12:56:26;;;;;;;50.67;19.63;;;;;;;;;;5029690;28;20029;-63
2022/03/16 12:58:52;;;;;;;47.92;19.13;;;;;;;;;;5025519;28;20143;-63
2022/03/16 13:01:19;;;;;;;44.00;19.17;;;;;;;;;;5026907;28;20065;-63
2022/03/16 13:03:45;;;;;;;46.55;18.60;;;;;;;;;;5031635;28;20457;-63
2022/03/16 13:06:18;;;;;;;51.10;18.77;;;;;;;;;;5029741;28;20081;-63
2022/03/16 13:08:50;;;;;;;45.97;19.73;;;;;;;;;;5029924;28;20156;-63
2022/03/16 13:11:20;;;;;;;47.70;17.90;;;;;;;;;;5029381;28;20041;-63
2022/03/16 13:13:47;;;;;;;46.10;18.40;;;;;;;;;;5030625;28;20025;-63
2022/03/16 13:16:34;;;;;;;50.17;19.13;;;;;;;;;;5029878;28;20397;-63
2022/03/16 13:19:02;;;;;;;52.92;17.67;;;;;;;;;;5028607;28;20496;-63
2022/03/16 13:21:28;;;;;;;43.10;17.20;;;;;;;;;;5030533;28;20021;-63
2022/03/16 13:24:04;;;;;;;52.78;19.83;;;;;;;;;;5030182;28;20422;-63
2022/03/16 13:26:30;;;;;;;39.00;16.35;;;;;;;;;;5029491;28;20164;-63
2022/03/16 13:28:58;;;;;;;47.85;16.65;;;;;;;;;;5029928;28;20386;-63
2022/03/16 13:31:25;;;;;;;41.90;16.58;;;;;;;;;;5030121;28;20390;-63
2022/03/16 13:33:52;;;;;;;44.80;15.95;;;;;;;;;;5029219;28;20029;-63
2022/03/16 13:36:18;;;;;;;50.25;15.25;;;;;;;;;;5029394;28;20396;-63
2022/03/16 13:38:44;;;;;;;36.67;14.75;;;;;;;;;;5030016;28;20032;-63
2022/03/16 13:41:11;;;;;;;46.50;15.32;;;;;;;;;;5029457;28;20033;-63
2022/03/16 13:43:38;;;;;;;51.20;15.70;;;;;;;;;;5029640;28;20014;-63
2022/03/16 13:46:09;;;;;;;42.20;15.38;;;;;;;;;;5030346;28;20037;-63
2022/03/16 13:48:39;;;;;;;51.72;17.10;;;;;;;;;;5029966;28;20029;-63
2022/03/16 13:51:06;;;;;;;42.47;14.18;;;;;;;;;;5030538;28;20025;-63
2022/03/16 13:53:42;;;;;;;46.20;16.83;;;;;;;;;;5029103;28;20025;-63
2022/03/16 13:56:17;;;;;;;39.40;14.32;;;;;;;;;;5029524;28;20045;-63
2022/03/16 13:58:44;;;;;;;37.22;11.88;;;;;;;;;;5027966;28;20044;-63
2022/03/16 14:01:19;;;;;;;44.08;14.27;;;;;;;;;;5030580;28;20051;-63
2022/03/16 14:03:45;;;;;;;39.35;14.00;;;;;;;;;;5030490;28;20045;-63
2022/03/16 14:06:13;;;;;;;38.70;12.70;;;;;;;;;;5030238;28;20051;-63
2022/03/16 14:08:39;;;;;;;39.22;13.70;;;;;;;;;;5029536;28;20499;-63
2022/03/16 14:11:05;;;;;;;42.88;13.05;;;;;;;;;;5030637;28;20039;-63
2022/03/16 14:13:38;;;;;;;41.30;12.00;;;;;;;;;;5029854;28;20041;-63
2022/03/16 14:16:10;;;;;;;36.13;11.13;;;;;;;;;;5028841;28;20036;-63
2022/03/16 14:18:36;;;;;;;41.00;11.25;;;;;;;;;;5029301;28;20034;-63
2022/03/16 14:21:03;;;;;;;34.55;10.48;;;;;;;;;;5030523;28;20358;-63
2022/03/16 14:23:30;;;;;;;27.40;8.35;;;;;;;;;;5029203;28;20112;-63
2022/03/16 14:25:58;;;;;;;48.13;10.52;;;;;;;;;;5030059;28;20037;-63
2022/03/16 14:28:24;;;;;;;32.83;8.23;;;;;;;;;;5028958;28;20464;-63
2022/03/16 14:30:53;;;;;;;33.72;8.50;;;;;;;;;;5028788;28;20121;-63
2022/03/16 14:33:23;;;;;;;23.67;7.25;;;;;;;;;;5028737;28;20034;-63
2022/03/16 14:35:58;;;;;;;29.08;7.50;;;;;;;;;;5029768;28;20452;-63
2022/03/16 14:38:24;;;;;;;27.05;7.18;;;;;;;;;;5029004;28;20056;-63